Time;durP1;ratioP1;P1;durP2;ratioP2;P2;SDS_P1;SDS_P2;PMS_P1;PMS_P2;Temp;Humidity;BMP_temperature;BMP_pressure;BME280_temperature;BME280_humidity;BME280_pressure;Samples;Min_cycle;Max_cycle;Signal;HPM_P1;HPM_P2
2023/12/15 00:02:21;;;;;;;36.28;17.73;;;;;;;6.83;100.00;100467.25;5093998;28;20058;-41
2023/12/15 00:04:50;;;;;;;36.20;18.95;;;;;;;6.80;100.00;100469.16;5093493;28;20048;-41
2023/12/15 00:07:18;;;;;;;35.17;18.88;;;;;;;6.81;100.00;100476.19;5097266;28;20039;-41
2023/12/15 00:09:47;;;;;;;33.50;18.20;;;;;;;6.78;100.00;100476.31;5113901;28;20134;-42
2023/12/15 00:12:15;;;;;;;34.78;18.85;;;;;;;6.80;100.00;100475.34;5114230;28;20048;-43
2023/12/15 00:14:45;;;;;;;35.25;18.27;;;;;;;6.76;100.00;100484.34;5113986;28;20039;-42
2023/12/15 00:17:14;;;;;;;35.28;19.13;;;;;;;6.89;100.00;100485.56;5113997;28;20044;-42
2023/12/15 00:19:42;;;;;;;35.35;18.80;;;;;;;6.67;100.00;100483.84;5113992;28;20405;-43
2023/12/15 00:22:10;;;;;;;36.60;19.38;;;;;;;6.82;100.00;100492.03;5113951;27;20051;-41
2023/12/15 00:24:39;;;;;;;39.33;20.05;;;;;;;6.78;100.00;100492.22;5113858;28;20055;-42
2023/12/15 00:27:07;;;;;;;36.95;19.42;;;;;;;6.77;100.00;100490.50;5113707;28;20409;-42
2023/12/15 00:29:35;;;;;;;39.65;19.83;;;;;;;6.77;100.00;100501.13;5113748;28;20084;-42
2023/12/15 00:32:06;;;;;;;38.20;20.13;;;;;;;6.72;100.00;100503.94;5093875;28;20048;-43
2023/12/15 00:34:34;;;;;;;36.00;20.42;;;;;;;6.68;100.00;100507.66;5073255;28;20385;-43
2023/12/15 00:37:03;;;;;;;41.75;20.38;;;;;;;6.61;100.00;100506.16;5072951;28;20153;-41
2023/12/15 00:39:31;;;;;;;38.35;20.63;;;;;;;6.74;100.00;100523.28;5086570;28;19920;-42
2023/12/15 00:42:00;;;;;;;36.78;20.52;;;;;;;6.60;100.00;100520.34;5113649;28;20059;-42
2023/12/15 00:44:28;;;;;;;38.85;21.55;;;;;;;6.55;100.00;100527.59;5113645;27;20048;-41
2023/12/15 00:46:56;;;;;;;39.47;21.52;;;;;;;6.64;100.00;100518.41;5113516;28;20130;-42
2023/12/15 00:49:26;;;;;;;38.40;20.77;;;;;;;6.49;100.00;100526.06;5113424;28;20107;-42
2023/12/15 00:51:55;;;;;;;40.95;21.80;;;;;;;6.52;100.00;100528.59;5115175;28;20108;-47
2023/12/15 00:54:23;;;;;;;39.03;21.02;;;;;;;6.48;100.00;100531.44;5113998;28;20044;-43
2023/12/15 00:56:51;;;;;;;40.90;21.88;;;;;;;6.41;100.00;100536.09;5113573;28;20048;-41
2023/12/15 00:59:22;;;;;;;39.85;21.13;;;;;;;6.42;100.00;100552.84;5093026;28;20130;-41
2023/12/15 01:01:50;;;;;;;42.53;21.77;;;;;;;6.49;100.00;100549.91;5092758;28;20089;-42
2023/12/15 01:04:19;;;;;;;37.58;20.83;;;;;;;6.47;100.00;100561.50;5092835;28;20079;-43
2023/12/15 01:06:48;;;;;;;38.35;20.67;;;;;;;6.36;100.00;100556.59;5101660;28;20173;-42
2023/12/15 01:09:17;;;;;;;39.17;21.48;;;;;;;6.48;100.00;100563.22;5107597;28;20077;-42
2023/12/15 01:11:45;;;;;;;38.53;21.17;;;;;;;6.45;100.00;100560.69;5092574;28;20126;-43
2023/12/15 01:14:13;;;;;;;39.63;21.38;;;;;;;6.44;100.00;100558.94;5092477;28;20485;-43
2023/12/15 01:16:45;;;;;;;37.83;19.98;;;;;;;6.40;100.00;100565.31;5091098;28;20127;-42
2023/12/15 01:19:15;;;;;;;38.00;20.33;;;;;;;6.36;100.00;100566.31;5092588;28;20508;-42
2023/12/15 01:21:44;;;;;;;40.20;20.75;;;;;;;6.29;100.00;100566.56;5092503;28;20463;-45
2023/12/15 01:24:13;;;;;;;39.83;21.15;;;;;;;6.39;100.00;100563.59;5092470;28;20413;-42
2023/12/15 01:26:42;;;;;;;38.08;20.65;;;;;;;6.39;100.00;100576.81;5092076;28;20056;-43
2023/12/15 01:29:10;;;;;;;38.05;20.02;;;;;;;6.43;100.00;100570.47;5092243;28;20040;-42
2023/12/15 01:31:38;;;;;;;38.65;20.63;;;;;;;6.39;100.00;100568.88;5109785;28;20047;-44
2023/12/15 01:34:07;;;;;;;35.38;19.27;;;;;;;6.51;100.00;100568.41;5112779;27;20048;-42
2023/12/15 01:36:37;;;;;;;38.20;20.55;;;;;;;6.58;100.00;100575.19;5112425;28;20059;-42
2023/12/15 01:39:05;;;;;;;38.85;20.05;;;;;;;6.54;100.00;100573.56;5112546;28;20120;-42
2023/12/15 01:41:35;;;;;;;37.67;20.75;;;;;;;6.42;100.00;100574.06;5112383;28;20492;-41
2023/12/15 01:44:03;;;;;;;38.30;19.80;;;;;;;6.31;100.00;100588.56;5112204;28;20140;-41
2023/12/15 01:46:31;;;;;;;37.00;20.50;;;;;;;6.18;100.00;100592.59;5112285;28;20507;-41
2023/12/15 01:49:00;;;;;;;39.30;20.88;;;;;;;5.94;100.00;100601.41;5112506;28;20079;-43
2023/12/15 01:51:28;;;;;;;38.63;21.65;;;;;;;5.99;100.00;100597.69;5112587;28;20086;-43
2023/12/15 01:53:57;;;;;;;38.42;19.65;;;;;;;6.09;100.00;100595.59;5112562;28;21118;-41
2023/12/15 01:56:25;;;;;;;40.83;21.70;;;;;;;6.15;100.00;100603.28;5112764;28;20043;-40
2023/12/15 01:58:55;;;;;;;39.15;21.42;;;;;;;6.08;100.00;100601.81;5112896;28;20047;-42
2023/12/15 02:01:23;;;;;;;39.15;20.75;;;;;;;6.05;100.00;100607.19;5112853;28;20138;-42
2023/12/15 02:03:52;;;;;;;41.13;20.58;;;;;;;6.07;100.00;100602.69;5112700;28;20404;-42
2023/12/15 02:06:20;;;;;;;42.25;21.15;;;;;;;6.22;100.00;100611.88;5112106;28;20062;-42
2023/12/15 02:08:49;;;;;;;42.20;21.83;;;;;;;6.05;100.00;100606.31;5093175;28;20412;-43
2023/12/15 02:11:18;;;;;;;43.28;22.27;;;;;;;6.22;100.00;100599.50;5091809;28;20147;-42
2023/12/15 02:13:47;;;;;;;40.70;21.98;;;;;;;6.23;100.00;100601.22;5092709;28;20127;-43
2023/12/15 02:16:16;;;;;;;38.17;21.08;;;;;;;6.15;100.00;100603.28;5092065;28;20048;-42
2023/12/15 02:18:45;;;;;;;39.17;20.73;;;;;;;6.08;100.00;100603.56;5091544;28;20052;-43
2023/12/15 02:21:13;;;;;;;40.25;20.50;;;;;;;6.11;100.00;100606.97;5091425;28;20071;-42
2023/12/15 02:23:43;;;;;;;40.45;19.92;;;;;;;6.11;100.00;100606.97;5091544;28;20101;-42
2023/12/15 02:26:11;;;;;;;38.30;20.13;;;;;;;6.16;100.00;100618.25;5091901;28;20523;-41
2023/12/15 02:28:39;;;;;;;35.90;19.60;;;;;;;6.12;100.00;100608.72;5112200;28;20047;-43
2023/12/15 02:31:08;;;;;;;34.95;19.40;;;;;;;6.12;100.00;100608.72;5112355;28;20380;-41
2023/12/15 02:33:36;;;;;;;37.28;20.20;;;;;;;6.09;100.00;100619.41;5111852;28;20411;-41
2023/12/15 02:36:05;;;;;;;37.17;19.38;;;;;;;6.14;100.00;100621.88;5111560;28;20043;-41
2023/12/15 02:38:34;;;;;;;37.78;19.42;;;;;;;6.14;100.00;100628.06;5111981;28;20043;-41
2023/12/15 02:41:04;;;;;;;36.53;18.95;;;;;;;6.23;100.00;100622.41;5111597;28;20054;-42
2023/12/15 02:43:32;;;;;;;33.58;18.35;;;;;;;6.30;100.00;100633.66;5099016;28;20044;-42
2023/12/15 02:46:00;;;;;;;37.53;19.77;;;;;;;6.36;100.00;100632.56;5091145;28;20514;-42
2023/12/15 02:48:28;;;;;;;33.53;17.83;;;;;;;6.38;100.00;100630.75;5091120;28;20052;-42
2023/12/15 02:50:58;;;;;;;34.17;18.55;;;;;;;6.38;100.00;100626.31;5090967;28;20094;-43
2023/12/15 02:53:28;;;;;;;35.75;18.60;;;;;;;6.47;100.00;100625.97;5091473;28;20064;-42
2023/12/15 02:55:57;;;;;;;36.45;17.55;;;;;;;6.48;100.00;100627.69;5089915;28;20044;-42
2023/12/15 02:58:26;;;;;;;33.88;17.58;;;;;;;6.59;100.00;100629.94;5091078;28;20044;-42
2023/12/15 03:00:55;;;;;;;31.02;16.60;;;;;;;6.51;100.00;100622.28;5091006;28;20459;-44
2023/12/15 03:03:23;;;;;;;33.85;17.20;;;;;;;6.59;100.00;100640.53;5090948;28;20448;-42
2023/12/15 03:05:52;;;;;;;32.35;17.13;;;;;;;6.73;100.00;100637.34;5094605;28;20044;-41
2023/12/15 03:08:20;;;;;;;31.10;16.25;;;;;;;6.71;100.00;100641.84;5111469;28;20404;-42
2023/12/15 03:10:48;;;;;;;31.23;16.17;;;;;;;6.78;100.00;100649.53;5111196;28;20174;-43
2023/12/15 03:13:17;;;;;;;30.35;16.55;;;;;;;6.70;100.00;100651.59;5111223;28;20071;-42
2023/12/15 03:15:47;;;;;;;30.92;15.98;;;;;;;6.82;100.00;100660.88;5111144;28;20048;-46
2023/12/15 03:18:16;;;;;;;28.48;15.40;;;;;;;6.82;100.00;100668.81;5111207;28;20047;-42
2023/12/15 03:20:45;;;;;;;28.60;15.43;;;;;;;6.84;100.00;100662.53;5108129;28;20044;-41
2023/12/15 03:23:14;;;;;;;29.73;15.25;;;;;;;6.81;100.00;100673.25;5094308;28;20095;-42
2023/12/15 03:25:42;;;;;;;25.23;14.65;;;;;;;6.72;100.00;100673.59;5094445;28;20052;-42
2023/12/15 03:28:10;;;;;;;27.27;14.93;;;;;;;6.70;100.00;100659.56;5094790;28;20129;-41
2023/12/15 03:30:39;;;;;;;26.20;13.57;;;;;;;6.67;100.00;100664.97;5094311;28;20044;-42
2023/12/15 03:33:08;;;;;;;27.45;15.45;;;;;;;6.65;100.00;100669.44;5094703;28;20134;-42
2023/12/15 03:35:37;;;;;;;29.65;15.40;;;;;;;6.73;100.00;100672.69;5094728;28;20101;-42
2023/12/15 03:38:06;;;;;;;29.38;15.63;;;;;;;6.73;100.00;100680.63;5102627;28;20067;-40
2023/12/15 03:40:34;;;;;;;27.83;15.07;;;;;;;6.82;100.00;100676.78;5114784;28;20054;-41
2023/12/15 03:43:02;;;;;;;28.58;15.30;;;;;;;6.72;100.00;100678.91;5114653;28;20043;-41
2023/12/15 03:45:31;;;;;;;27.70;15.35;;;;;;;6.80;100.00;100682.13;5114894;28;20043;-42
2023/12/15 03:47:59;;;;;;;26.63;14.65;;;;;;;6.69;100.00;100681.69;5115072;28;20567;-42
2023/12/15 03:50:29;;;;;;;29.50;14.98;;;;;;;6.76;100.00;100680.53;5114821;28;20051;-41
2023/12/15 03:52:57;;;;;;;29.25;15.30;;;;;;;6.71;100.00;100682.47;5114852;28;20055;-40
2023/12/15 03:55:26;;;;;;;32.08;16.35;;;;;;;6.59;100.00;100677.66;5114590;28;20043;-41
2023/12/15 03:57:54;;;;;;;29.55;15.00;;;;;;;6.57;100.00;100679.50;5106594;28;20088;-42
2023/12/15 04:00:23;;;;;;;28.40;16.02;;;;;;;6.58;100.00;100686.53;5095524;28;20097;-42
2023/12/15 04:02:51;;;;;;;31.58;17.15;;;;;;;6.50;100.00;100699.19;5095108;28;20044;-42
2023/12/15 04:05:21;;;;;;;31.27;16.98;;;;;;;6.53;100.00;100709.66;5094126;28;20393;-41
2023/12/15 04:07:53;;;;;;;33.47;17.25;;;;;;;6.57;100.00;100711.31;5094069;28;20056;-44
2023/12/15 04:10:21;;;;;;;29.88;17.27;;;;;;;6.49;100.00;100714.22;5093847;28;20044;-42
2023/12/15 04:12:49;;;;;;;32.72;17.85;;;;;;;6.58;100.00;100720.97;5107512;28;20052;-41
2023/12/15 04:15:19;;;;;;;33.20;18.38;;;;;;;6.37;100.00;100719.97;5114354;28;20054;-42
2023/12/15 04:17:47;;;;;;;36.67;21.27;;;;;;;6.41;100.00;100715.41;5114223;28;20160;-42
2023/12/15 04:20:16;;;;;;;30.55;15.93;;;;;;;6.32;100.00;100717.47;5113980;28;20048;-41
2023/12/15 04:22:44;;;;;;;32.50;17.17;;;;;;;6.54;100.00;100719.34;5113955;28;20104;-40
2023/12/15 04:25:14;;;;;;;30.23;16.80;;;;;;;6.37;100.00;100727.03;5114056;28;20055;-41
2023/12/15 04:27:42;;;;;;;29.48;16.55;;;;;;;6.42;100.00;100733.91;5114098;28;20043;-41
2023/12/15 04:30:12;;;;;;;28.25;15.93;;;;;;;6.47;100.00;100737.28;5099556;28;20048;-42
2023/12/15 04:32:40;;;;;;;31.35;16.13;;;;;;;6.39;100.00;100734.03;5093446;28;20131;-41
2023/12/15 04:35:09;;;;;;;29.95;16.00;;;;;;;6.40;100.00;100743.69;5092976;28;20098;-43
2023/12/15 04:37:37;;;;;;;28.83;14.93;;;;;;;6.48;100.00;100746.09;5093627;28;20040;-41
2023/12/15 04:40:07;;;;;;;30.50;16.45;;;;;;;6.53;100.00;100752.06;5093348;28;20465;-44
2023/12/15 04:42:37;;;;;;;28.17;15.93;;;;;;;6.44;100.00;100752.41;5093516;28;20131;-41
2023/12/15 04:45:07;;;;;;;25.90;14.07;;;;;;;6.50;100.00;100760.13;5093531;28;20057;-41
2023/12/15 04:47:36;;;;;;;29.42;16.08;;;;;;;6.34;100.00;100762.44;5093236;28;20128;-41
2023/12/15 04:50:06;;;;;;;30.17;15.77;;;;;;;6.41;100.00;100763.13;5098058;28;20040;-41
2023/12/15 04:52:35;;;;;;;29.55;15.77;;;;;;;6.42;100.00;100772.78;5113756;28;20058;-40
2023/12/15 04:55:04;;;;;;;30.80;15.70;;;;;;;6.35;100.00;100779.22;5113676;28;20052;-41
2023/12/15 04:57:32;;;;;;;27.00;15.35;;;;;;;6.43;100.00;100785.97;5113579;28;20040;-40
2023/12/15 05:00:04;;;;;;;29.45;15.55;;;;;;;6.51;100.00;100781.28;5098364;28;20107;-41
2023/12/15 05:02:32;;;;;;;29.52;16.15;;;;;;;6.47;100.00;100794.72;5092877;28;20116;-41
2023/12/15 05:05:00;;;;;;;28.00;15.02;;;;;;;6.56;100.00;100797.91;5103624;28;20447;-40
2023/12/15 05:07:30;;;;;;;25.70;15.27;;;;;;;6.56;100.00;100810.25;5108773;28;20059;-40
2023/12/15 05:09:59;;;;;;;25.60;14.00;;;;;;;6.55;100.00;100811.19;5101098;28;20093;-41
2023/12/15 05:12:27;;;;;;;26.55;15.05;;;;;;;6.52;100.00;100806.00;5099907;28;20040;-41
2023/12/15 05:14:55;;;;;;;24.45;13.98;;;;;;;6.43;100.00;100808.97;5099444;28;20501;-42
2023/12/15 05:17:25;;;;;;;24.58;14.80;;;;;;;6.54;100.00;100814.75;5092584;28;20554;-41
2023/12/15 05:19:54;;;;;;;27.65;15.18;;;;;;;6.55;100.00;100819.13;5092650;28;20155;-43
2023/12/15 05:22:23;;;;;;;29.38;15.65;;;;;;;6.46;100.00;100830.06;5092639;28;20051;-41
2023/12/15 05:24:51;;;;;;;22.75;13.25;;;;;;;6.55;100.00;100827.09;5092744;28;20813;-43
2023/12/15 05:27:19;;;;;;;26.27;14.15;;;;;;;6.46;100.00;100830.91;5092593;28;20097;-41
2023/12/15 05:29:48;;;;;;;23.80;13.32;;;;;;;6.57;100.00;100833.22;5092415;28;20097;-42
2023/12/15 05:32:17;;;;;;;24.67;13.95;;;;;;;6.42;100.00;100844.34;5108804;28;20044;-41
2023/12/15 05:34:47;;;;;;;21.95;12.48;;;;;;;6.47;100.00;100842.41;5113269;28;20138;-41
2023/12/15 05:37:15;;;;;;;23.45;12.63;;;;;;;6.32;100.00;100849.94;5113188;28;20051;-42
2023/12/15 05:39:44;;;;;;;20.08;11.88;;;;;;;6.42;100.00;100849.63;5112878;27;20043;-42
2023/12/15 05:42:13;;;;;;;21.92;13.00;;;;;;;6.39;100.00;100855.06;5113118;28;20048;-42
2023/12/15 05:44:41;;;;;;;21.55;11.75;;;;;;;6.37;100.00;100862.16;5112257;28;20044;-42
2023/12/15 05:47:10;;;;;;;19.85;11.63;;;;;;;6.41;100.00;100869.09;5108798;28;20044;-42
2023/12/15 05:49:39;;;;;;;21.75;12.25;;;;;;;6.37;100.00;100864.81;5092326;28;20044;-43
2023/12/15 05:52:10;;;;;;;18.92;11.32;;;;;;;6.48;100.00;100873.28;5092236;28;20055;-41
2023/12/15 05:54:40;;;;;;;22.38;12.07;;;;;;;6.17;100.00;100876.91;5092042;28;20052;-42
2023/12/15 05:57:08;;;;;;;20.42;12.00;;;;;;;6.24;100.00;100870.53;5092083;28;20052;-41
2023/12/15 05:59:41;;;;;;;20.80;11.27;;;;;;;6.31;100.00;100882.66;5094779;28;20101;-42
2023/12/15 06:02:10;;;;;;;21.80;12.20;;;;;;;6.43;100.00;100889.34;5112104;28;20090;-42
2023/12/15 06:04:38;;;;;;;20.80;12.02;;;;;;;6.41;100.00;100895.59;5112009;28;20412;-40
2023/12/15 06:07:06;;;;;;;20.83;11.65;;;;;;;6.38;100.00;100903.66;5112037;28;20047;-41
2023/12/15 06:09:38;;;;;;;20.30;12.00;;;;;;;6.41;100.00;100901.78;5112270;28;20043;-41
2023/12/15 06:12:07;;;;;;;22.20;11.32;;;;;;;6.27;100.00;100915.47;5112068;28;20477;-42
2023/12/15 06:14:37;;;;;;;18.40;11.48;;;;;;;6.28;100.00;100911.91;5112008;28;20131;-41
2023/12/15 06:17:06;;;;;;;19.63;10.88;;;;;;;6.42;100.00;100921.19;5109734;28;20101;-44
2023/12/15 06:19:35;;;;;;;17.80;10.25;;;;;;;6.47;100.00;100916.63;5091397;28;20051;-41
2023/12/15 06:22:03;;;;;;;16.73;9.52;;;;;;;6.29;100.00;100924.25;5091471;28;20055;-41
2023/12/15 06:24:32;;;;;;;18.17;9.65;;;;;;;6.29;100.00;100929.53;5091370;28;20051;-42
2023/12/15 06:27:03;;;;;;;20.80;10.18;;;;;;;6.32;100.00;100929.44;5096531;28;20040;-42
2023/12/15 06:29:31;;;;;;;17.83;10.13;;;;;;;6.29;100.00;100932.19;5103799;28;20088;-41
2023/12/15 06:32:00;;;;;;;16.48;9.60;;;;;;;6.30;100.00;100938.34;5096366;28;20536;-42
2023/12/15 06:34:28;;;;;;;17.92;10.45;;;;;;;6.35;100.00;100946.13;5099871;28;20108;-42
2023/12/15 06:36:56;;;;;;;16.05;10.13;;;;;;;6.36;100.00;100946.09;5101697;28;20096;-42
2023/12/15 06:39:24;;;;;;;16.33;10.55;;;;;;;6.35;100.00;100946.13;5094457;28;20052;-40
2023/12/15 06:41:53;;;;;;;17.98;9.70;;;;;;;6.23;100.00;100952.69;5099045;28;20400;-40
2023/12/15 06:44:27;;;;;;;22.15;11.23;;;;;;;6.28;100.00;100949.00;5097403;28;20044;-42
2023/12/15 06:46:56;;;;;;;22.25;11.98;;;;;;;6.18;100.00;100967.88;5098517;28;20047;-42
2023/12/15 06:49:30;;;;;;;24.23;13.10;;;;;;;6.18;100.00;100974.06;5103126;28;20039;-41
2023/12/15 06:51:59;;;;;;;23.77;12.38;;;;;;;6.10;100.00;100980.50;5098949;28;20393;-40
2023/12/15 06:54:28;;;;;;;19.38;11.10;;;;;;;6.11;100.00;100983.09;5097422;28;20116;-40
2023/12/15 06:56:56;;;;;;;17.02;10.45;;;;;;;6.19;100.00;100993.47;5100540;28;20176;-41
2023/12/15 06:59:24;;;;;;;16.15;9.15;;;;;;;6.08;100.00;100999.09;5103405;28;20392;-41
2023/12/15 07:01:54;;;;;;;18.67;10.18;;;;;;;6.17;100.00;101006.72;5104425;28;20083;-40
2023/12/15 07:04:23;;;;;;;16.17;9.63;;;;;;;6.23;100.00;101011.84;5101373;28;20074;-42
2023/12/15 07:06:52;;;;;;;15.75;9.00;;;;;;;6.15;100.00;101018.28;5107230;28;20043;-40
2023/12/15 07:09:21;;;;;;;16.50;8.70;;;;;;;6.14;100.00;101029.81;5091479;28;20040;-41
2023/12/15 07:11:49;;;;;;;16.20;9.00;;;;;;;6.18;100.00;101036.75;5112547;28;20052;-42
2023/12/15 07:14:17;;;;;;;20.40;10.90;;;;;;;6.18;100.00;101037.63;5096356;28;20135;-41
2023/12/15 07:16:45;;;;;;;20.65;11.45;;;;;;;6.26;100.00;101038.25;5098738;28;20043;-40
2023/12/15 07:19:15;;;;;;;17.30;9.38;;;;;;;6.26;100.00;101050.63;5101071;28;20044;-40
2023/12/15 07:21:43;;;;;;;17.23;9.57;;;;;;;6.35;100.00;101055.66;5094503;28;20059;-41
2023/12/15 07:24:12;;;;;;;22.40;11.75;;;;;;;6.13;100.00;101055.41;5093033;28;20550;-41
2023/12/15 07:26:40;;;;;;;21.92;11.60;;;;;;;6.02;100.00;101062.81;5094233;28;20052;-40
2023/12/15 07:29:08;;;;;;;19.08;10.07;;;;;;;6.06;100.00;101075.03;5094202;28;20386;-41
2023/12/15 07:31:37;;;;;;;16.08;8.15;;;;;;;6.05;100.00;101083.03;5097994;28;20506;-41
2023/12/15 07:34:05;;;;;;;18.38;7.70;;;;;;;6.10;100.00;101083.78;5096722;27;20102;-42
2023/12/15 07:36:35;;;;;;;12.82;7.38;;;;;;;5.87;100.00;101094.97;5094490;28;20043;-40
2023/12/15 07:39:03;;;;;;;12.45;7.32;;;;;;;5.74;100.00;101097.09;5093824;28;20543;-41
2023/12/15 07:41:31;;;;;;;13.85;7.50;;;;;;;5.78;100.00;101108.47;5098622;28;20139;-40
2023/12/15 07:44:00;;;;;;;12.63;8.23;;;;;;;5.58;100.00;101101.91;5098640;28;20520;-43
2023/12/15 07:46:28;;;;;;;12.27;7.22;;;;;;;5.59;100.00;101110.72;5100400;28;20055;-40
2023/12/15 07:48:56;;;;;;;12.70;7.32;;;;;;;5.63;100.00;101107.97;5093768;28;20101;-42
2023/12/15 07:51:25;;;;;;;14.15;7.45;;;;;;;5.41;100.00;101118.25;5093940;28;20106;-42
2023/12/15 07:53:54;;;;;;;13.10;7.80;;;;;;;5.60;100.00;101115.13;5094110;28;20040;-44
2023/12/15 07:56:24;;;;;;;14.30;7.07;;;;;;;5.62;100.00;101127.41;5109333;28;20062;-42
2023/12/15 07:58:53;;;;;;;13.52;7.32;;;;;;;5.62;100.00;101140.66;5092562;28;20104;-40
2023/12/15 08:01:22;;;;;;;13.98;7.32;;;;;;;5.69;100.00;101147.53;5115525;28;20101;-42
2023/12/15 08:03:50;;;;;;;15.07;7.88;;;;;;;5.62;100.00;101155.66;5106383;28;20479;-41
2023/12/15 08:06:19;;;;;;;14.68;7.40;;;;;;;5.86;100.00;101154.13;5093953;28;20404;-42
2023/12/15 08:08:48;;;;;;;14.05;7.80;;;;;;;5.90;100.00;101161.09;5092921;28;20113;-41
2023/12/15 08:11:18;;;;;;;15.35;7.57;;;;;;;5.82;100.00;101171.03;5093699;28;20481;-42
2023/12/15 08:13:47;;;;;;;14.10;7.95;;;;;;;5.94;100.00;101178.69;5092357;28;20420;-41
2023/12/15 08:16:15;;;;;;;12.85;7.30;;;;;;;5.89;100.00;101175.25;5093443;28;20493;-43
2023/12/15 08:18:43;;;;;;;15.02;7.93;;;;;;;5.94;100.00;101182.19;5093624;28;20047;-41
2023/12/15 08:21:12;;;;;;;16.52;7.57;;;;;;;6.01;100.00;101181.13;5093677;28;20044;-41
2023/12/15 08:23:40;;;;;;;16.42;7.82;;;;;;;6.09;100.00;101191.53;5091823;28;20044;-42
2023/12/15 08:26:09;;;;;;;15.02;7.88;;;;;;;6.20;100.00;101181.50;5093222;28;20088;-41
2023/12/15 08:28:38;;;;;;;13.32;7.90;;;;;;;6.21;100.00;101190.31;5093210;28;20419;-41
2023/12/15 08:31:07;;;;;;;18.50;8.43;;;;;;;6.24;100.00;101200.81;5093157;28;20046;-44
2023/12/15 08:33:35;;;;;;;17.30;8.35;;;;;;;6.36;100.00;101195.16;5091755;28;20048;-42
2023/12/15 08:36:03;;;;;;;15.50;8.23;;;;;;;6.42;100.00;101207.41;5093481;28;20044;-44
2023/12/15 08:38:32;;;;;;;17.52;9.13;;;;;;;6.31;100.00;101219.16;5093197;28;20048;-41
2023/12/15 08:41:00;;;;;;;18.52;10.07;;;;;;;6.34;100.00;101222.63;5092942;28;20048;-41
2023/12/15 08:43:28;;;;;;;17.90;9.70;;;;;;;6.48;100.00;101223.13;5091494;28;20052;-40
2023/12/15 08:45:58;;;;;;;15.82;8.93;;;;;;;6.56;100.00;101237.91;5093333;28;20083;-46
2023/12/15 08:48:27;;;;;;;15.55;9.07;;;;;;;6.59;100.00;101229.00;5094385;28;20044;-42
2023/12/15 08:50:55;;;;;;;17.00;9.00;;;;;;;6.64;100.00;101234.16;5094724;28;20048;-43
2023/12/15 08:53:23;;;;;;;19.63;9.27;;;;;;;6.60;100.00;101236.03;5093724;28;20075;-42
2023/12/15 08:55:52;;;;;;;20.30;9.77;;;;;;;6.57;100.00;101230.84;5095070;28;20105;-43
2023/12/15 08:58:23;;;;;;;16.25;9.25;;;;;;;6.59;100.00;101240.47;5094546;28;20128;-43
2023/12/15 09:00:51;;;;;;;17.65;10.02;;;;;;;6.62;100.00;101236.88;5094426;28;20123;-44
2023/12/15 09:03:21;;;;;;;18.23;10.85;;;;;;;6.69;100.00;101243.75;5090813;28;20566;-43
2023/12/15 09:05:50;;;;;;;19.25;10.57;;;;;;;6.70;100.00;101253.44;5092715;28;20082;-42
2023/12/15 09:08:40;;;;;;;24.48;12.13;;;;;;;6.57;100.00;101265.31;5092235;28;20378;-42
2023/12/15 09:11:08;;;;;;;24.85;13.13;;;;;;;6.43;100.00;101267.44;5092650;28;20040;-43
2023/12/15 09:13:37;;;;;;;24.52;12.60;;;;;;;6.36;100.00;101271.16;5090943;28;20052;-43
2023/12/15 09:16:05;;;;;;;25.23;13.63;;;;;;;6.42;100.00;101271.00;5092755;28;20477;-41
2023/12/15 09:18:35;;;;;;;23.00;12.35;;;;;;;6.25;100.00;101282.03;5092961;28;20193;-41
2023/12/15 09:21:04;;;;;;;24.52;12.95;;;;;;;6.23;100.00;101278.56;5093321;28;20083;-41
2023/12/15 09:23:32;;;;;;;22.52;13.38;;;;;;;6.25;100.00;101276.75;5089286;28;20138;-44
2023/12/15 09:26:01;;;;;;;24.10;13.45;;;;;;;6.46;100.00;101273.50;5093202;28;20166;-42
2023/12/15 09:28:30;;;;;;;25.55;12.90;;;;;;;6.14;100.00;101273.50;5092932;28;20054;-49
2023/12/15 09:30:58;;;;;;;26.08;13.70;;;;;;;6.37;100.00;101284.41;5095572;28;20143;-44
2023/12/15 09:33:27;;;;;;;26.63;12.38;;;;;;;6.51;100.00;101294.63;5092279;28;20075;-44
2023/12/15 09:35:57;;;;;;;22.42;13.02;;;;;;;6.34;100.00;101299.47;5094613;28;20048;-43
2023/12/15 09:38:25;;;;;;;23.80;12.95;;;;;;;6.58;100.00;101301.50;5097499;28;20401;-42
2023/12/15 09:40:53;;;;;;;20.95;11.95;;;;;;;6.34;100.00;101318.03;5095856;28;20075;-42
2023/12/15 09:43:22;;;;;;;20.58;12.82;;;;;;;6.57;100.00;101308.59;5092570;28;20051;-42
2023/12/15 09:45:50;;;;;;;21.92;12.48;;;;;;;6.71;100.00;101316.16;5094097;28;20103;-42
2023/12/15 09:48:19;;;;;;;23.15;12.43;;;;;;;6.68;100.00;101318.91;5094075;28;20048;-41
2023/12/15 09:50:55;;;;;;;21.77;11.50;;;;;;;6.65;100.00;101324.25;5094730;28;20125;-41
2023/12/15 09:53:25;;;;;;;17.05;9.48;;;;;;;6.64;100.00;101327.81;5092989;28;20063;-41
2023/12/15 09:55:54;;;;;;;21.63;10.43;;;;;;;6.70;100.00;101327.66;5073896;28;20044;-41
2023/12/15 09:58:23;;;;;;;22.40;9.95;;;;;;;6.77;100.00;101334.56;5073138;28;20127;-42
2023/12/15 10:00:52;;;;;;;23.48;11.13;;;;;;;6.72;100.00;101331.16;5091842;28;20044;-45
2023/12/15 10:03:20;;;;;;;20.88;11.25;;;;;;;6.39;100.00;101338.22;5089133;28;20052;-48
2023/12/15 10:05:48;;;;;;;22.60;11.18;;;;;;;6.62;100.00;101342.03;5090835;28;20063;-42
2023/12/15 10:08:20;;;;;;;19.70;11.60;;;;;;;6.62;100.00;101345.56;5091146;28;20682;-43
2023/12/15 10:10:49;;;;;;;21.20;11.32;;;;;;;6.44;100.00;101346.03;5091760;28;20742;-42
2023/12/15 10:13:18;;;;;;;23.23;12.38;;;;;;;6.53;100.00;101341.38;5090108;28;20048;-43
2023/12/15 10:15:51;;;;;;;22.45;11.15;;;;;;;6.56;100.00;101340.41;5091330;28;20055;-43
2023/12/15 10:18:19;;;;;;;21.80;11.75;;;;;;;6.58;100.00;101354.50;5091588;28;20130;-41
2023/12/15 10:21:04;;;;;;;23.52;12.00;;;;;;;6.53;100.00;101351.09;5092511;28;20077;-41
2023/12/15 10:23:34;;;;;;;17.77;10.18;;;;;;;6.53;100.00;101361.69;5088747;28;20741;-43
2023/12/15 10:26:06;;;;;;;19.35;10.90;;;;;;;6.69;100.00;101368.34;5091388;28;20079;-45
2023/12/15 10:28:38;;;;;;;19.38;10.23;;;;;;;6.85;100.00;101374.09;5091338;28;20489;-42
2023/12/15 10:31:07;;;;;;;17.45;8.65;;;;;;;6.83;100.00;101379.44;5091102;28;20055;-42
2023/12/15 10:33:36;;;;;;;15.35;8.23;;;;;;;6.82;100.00;101374.19;5088451;28;20139;-42
2023/12/15 10:36:08;;;;;;;21.60;9.77;;;;;;;6.68;100.00;101377.22;5090974;28;20047;-42
2023/12/15 10:38:36;;;;;;;21.90;9.35;;;;;;;6.89;100.00;101378.44;5090897;28;20048;-42
2023/12/15 10:41:08;;;;;;;18.70;8.55;;;;;;;6.88;100.00;101385.50;5091295;28;20512;-41
2023/12/15 10:43:39;;;;;;;13.95;7.85;;;;;;;6.85;100.00;101382.97;5088278;28;20055;-43
2023/12/15 10:46:10;;;;;;;18.08;8.48;;;;;;;6.95;100.00;101387.97;5091062;28;20051;-42
2023/12/15 10:48:40;;;;;;;15.35;7.72;;;;;;;6.92;100.00;101385.41;5090686;28;20055;-43
2023/12/15 10:51:09;;;;;;;14.23;7.97;;;;;;;6.87;100.00;101388.22;5091564;28;20092;-43
2023/12/15 10:53:39;;;;;;;13.35;7.75;;;;;;;6.87;100.00;101391.75;5088699;28;20059;-42
2023/12/15 10:56:09;;;;;;;18.25;8.70;;;;;;;6.80;100.00;101392.81;5092720;28;20050;-44
2023/12/15 10:58:37;;;;;;;15.75;8.60;;;;;;;6.89;100.00;101397.00;5093149;28;20044;-42
2023/12/15 11:01:09;;;;;;;18.52;9.70;;;;;;;6.96;100.00;101397.72;5093222;28;20477;-43
2023/12/15 11:03:38;;;;;;;16.00;9.68;;;;;;;7.02;100.00;101408.13;5092161;28;20490;-42
2023/12/15 11:06:07;;;;;;;17.40;8.63;;;;;;;6.99;100.00;101406.44;5094411;28;20131;-45
2023/12/15 11:08:36;;;;;;;16.48;8.77;;;;;;;6.89;100.00;101412.91;5097489;28;20056;-44
2023/12/15 11:11:07;;;;;;;16.42;8.43;;;;;;;7.12;100.00;101410.50;5097304;28;20089;-42
2023/12/15 11:13:57;;;;;;;15.30;8.63;;;;;;;7.02;100.00;101416.09;5095064;28;20045;-47
2023/12/15 11:16:27;;;;;;;16.75;9.05;;;;;;;6.93;100.00;101414.56;5095796;28;20386;-42
2023/12/15 11:18:56;;;;;;;17.48;9.13;;;;;;;7.06;100.00;101417.78;5095058;28;20117;-46
2023/12/15 11:21:25;;;;;;;18.77;10.20;;;;;;;7.26;100.00;101411.91;5091862;28;20052;-42